Latest Weather Observations for Point Perpendicular

IDN60801

Issued at 7:32 pm EDT Wednesday 10 February 2016 (issued every 30 minutes, with the page automatically refreshed every 10 minutes)

About weather observations | Map of weather stations | Latest weather observations for NSW | Other Formats
Station Details ID: 068151 Name: POINT PERPENDICULAR AWS Lat: -35.09 Lon: 150.80 Height: 85.0 m
Data from the previous 72 hours. | See also: Recent months at Point Perpendicular
Date/Time
EDT
Temp
°C
App
Temp
°C
Dew
Point
Rel
Hum
%
Delta-T
°C
Wind Press
QNH
hPa
Press
MSL
hPa
Rain
since 9 am
mm
Dir
 
Spd
km/h
Gust
km/h
Spd
kts
Gust
kts
10/07:30pm 22.9 20.1 19.5 81 2.2 NNE 33 46 18 25 1012.1 1011.7 0.0
10/07:00pm 23.6 20.7 19.3 77 2.8 NNE 33 46 18 25 1011.9 1011.5 0.0
10/06:30pm 24.1 20.1 19.4 75 3.0 NNE 39 50 21 27 1011.2 1010.8 0.0
10/06:00pm 24.5 21.1 18.9 71 3.6 NNE 35 50 19 27 1011.2 1010.8 0.0
10/05:30pm 24.9 21.2 18.4 67 4.1 NNE 35 48 19 26 1011.2 1010.8 0.0
10/05:00pm 25.8 22.3 18.7 65 4.5 NNE 35 48 19 26 1011.2 1010.8 0.0
10/04:30pm 25.8 21.7 18.2 63 4.8 NNE 37 48 20 26 1011.0 1010.7 0.0
10/04:00pm 25.8 21.5 18.7 65 4.5 NNE 39 50 21 27 1011.2 1010.8 0.0
10/03:30pm 26.7 23.6 19.6 65 4.6 NNE 35 48 19 26 1011.5 1011.1 0.0
10/03:00pm 26.8 23.6 18.6 60 5.3 NNE 33 44 18 24 1011.9 1011.5 0.0
10/02:30pm 27.0 23.5 17.8 57 5.8 NNE 33 44 18 24 1012.3 1011.9 0.0
10/02:00pm 26.8 23.4 17.8 57 5.7 NNE 32 44 17 24 1012.7 1012.3 0.0
10/01:30pm 26.9 23.5 18.2 59 5.5 NNE 33 43 18 23 1013.1 1012.7 0.0
10/01:00pm 26.5 23.1 17.8 58 5.5 NE 32 43 17 23 1013.3 1012.9 0.0
10/12:30pm 26.8 24.0 18.1 59 5.5 NNE 30 41 16 22 1013.7 1013.4 0.0
10/12:00pm 26.7 24.8 18.6 61 5.2 NNE 26 39 14 21 1014.4 1014.1 0.0
10/11:30am 26.1 24.7 18.0 61 5.1 N 22 33 12 18 1015.0 1014.7 0.0
10/11:00am 26.0 24.8 17.1 58 5.6 N 19 28 10 15 1015.4 1015.1 0.0
10/10:30am 24.6 23.9 17.3 64 4.5 N 17 24 9 13 1015.4 1015.1 0.0
10/10:00am 24.0 23.0 18.0 69 3.8 N 20 28 11 15 1015.9 1015.6 0.0
10/09:30am 22.8 22.3 17.7 73 3.2 N 17 24 9 13 1016.0 1015.7 0.0
10/09:00am 21.9 23.0 17.9 78 2.5 N 9 15 5 8 1016.2 1015.9 0.0
10/08:30am 20.8 22.0 17.4 81 2.1 NNW 7 13 4 7 1016.1 1015.8 0.0
10/08:00am 19.6 20.8 16.8 84 1.7 NNW 6 9 3 5 1016.0 1015.7 0.0
10/07:30am 18.8 20.3 17.6 93 0.7 N 6 7 3 4 1015.8 1015.5 0.0
10/07:00am 17.9 19.1 17.3 96 0.4 NNW 7 9 4 5 1015.7 1015.4 0.0
10/06:30am 17.9 19.1 17.3 96 0.4 NW 7 9 4 5 1015.6 1015.3 0.0
10/06:00am 17.7 18.8 17.1 96 0.4 NW 7 9 4 5 1015.5 1015.2 0.0
10/05:30am 17.7 18.8 17.2 97 0.3 NW 7 9 4 5 1015.6 1015.3 0.0
10/05:00am 17.8 18.6 17.3 97 0.3 NW 9 11 5 6 1015.6 1015.3 0.0
10/04:30am 17.9 18.7 17.4 97 0.3 NW 9 11 5 6 1015.6 1015.3 0.0
10/04:00am 18.1 19.2 17.9 99 0.1 NW 9 11 5 6 1015.7 1015.4 0.0
10/03:30am 18.2 19.7 18.0 99 0.1 NW 7 9 4 5 1016.0 1015.7 0.0
10/03:00am 18.4 20.1 18.1 98 0.2 NW 6 7 3 4 1016.4 1016.1 0.0
10/02:30am 18.5 19.9 17.9 96 0.4 WNW 7 9 4 5 1016.7 1016.4 0.0
10/02:00am 18.7 20.3 18.2 97 0.3 WNW 7 9 4 5 1017.1 1016.8 0.0
10/01:30am 19.4 21.3 18.9 97 0.3 WNW 7 9 4 5 1017.4 1017.1 0.0
10/01:00am 19.4 21.6 19.1 98 0.2 NW 6 7 3 4 1017.8 1017.5 0.0
10/12:30am 18.8 19.7 17.5 92 0.8 N 9 11 5 6 1018.2 1017.9 0.0
10/12:00am 18.9 19.8 17.6 92 0.8 N 9 11 5 6 1018.6 1018.3 0.0
 
Date/Time
EDT
Temp
°C
App
Temp
°C
Dew
Point
Rel
Hum
%
Delta-T
°C
Wind Press
QNH
hPa
Press
MSL
hPa
Rain
since 9 am
mm
Dir
 
Spd
km/h
Gust
km/h
Spd
kts
Gust
kts
09/11:30pm 19.2 20.1 17.5 90 1.0 NNE 9 11 5 6 1018.9 1018.6 0.0
09/11:00pm 19.3 20.1 17.4 89 1.2 NE 9 11 5 6 1019.3 1019.0 0.0
09/10:30pm 19.6 20.8 17.4 87 1.3 NE 7 7 4 4 1019.6 1019.3 0.0
09/10:00pm 19.8 21.2 17.4 86 1.5 ENE 6 7 3 4 1019.7 1019.4 0.0
09/09:30pm 20.4 21.9 17.6 84 1.7 E 6 7 3 4 1019.6 1019.3 0.0
09/09:00pm 20.7 22.3 17.9 84 1.7 E 6 7 3 4 1019.4 1019.1 0.0
09/08:30pm 20.9 22.4 17.5 81 2.1 E 6 9 3 5 1019.4 1019.1 0.0
09/08:00pm 21.2 22.7 17.6 80 2.2 E 6 9 3 5 1019.5 1019.2 0.0
09/07:30pm 21.8 23.0 17.4 76 2.7 ESE 7 13 4 7 1019.3 1019.0 0.0
09/07:00pm 22.4 23.3 17.5 74 3.0 ESE 9 13 5 7 1019.1 1018.8 0.0
09/06:30pm 22.4 22.7 17.1 72 3.3 ESE 11 17 6 9 1018.8 1018.5 0.0
09/06:00pm 22.4 22.7 16.9 71 3.4 ESE 11 17 6 9 1018.8 1018.5 0.0
09/05:30pm 22.2 22.2 16.2 69 3.6 ESE 11 20 6 11 1018.9 1018.6 0.0
09/05:00pm 22.5 21.8 15.4 64 4.2 SE 13 20 7 11 1019.2 1018.9 0.0
09/04:30pm 23.2 22.9 16.5 66 4.1 SE 13 24 7 13 1019.3 1019.0 0.0
09/04:00pm 23.4 22.9 16.0 63 4.5 SE 13 22 7 12 1019.7 1019.4 0.0
09/03:30pm 23.5 23.0 15.8 62 4.7 SE 13 22 7 12 1020.0 1019.7 0.0
09/03:00pm 23.7 22.5 16.0 62 4.7 SSE 17 24 9 13 1020.4 1020.1 0.0
09/02:30pm 24.1 23.4 16.4 62 4.7 SSE 15 24 8 13 1020.6 1020.3 0.0
09/02:00pm 23.4 22.3 15.2 60 4.9 SSE 15 26 8 14 1021.0 1020.7 0.0
09/01:30pm 23.4 22.2 16.0 63 4.5 SSE 17 24 9 13 1021.2 1020.9 0.0
09/01:00pm 23.2 21.6 16.0 64 4.4 S 19 24 10 13 1021.3 1021.0 0.0
09/12:30pm 23.2 21.3 15.8 63 4.5 SSE 20 26 11 14 1021.6 1021.3 0.0
09/12:00pm 22.8 21.2 16.1 66 4.1 S 19 26 10 14 1021.7 1021.4 0.0
09/11:30am 22.5 20.9 16.1 67 3.9 SSE 19 28 10 15 1021.8 1021.5 0.0
09/11:00am 21.9 20.1 16.0 69 3.6 SSE 20 30 11 16 1021.9 1021.6 0.0
09/10:30am 22.1 20.5 15.9 68 3.7 S 19 30 10 16 1021.9 1021.6 0.0
09/10:00am 22.2 20.7 16.7 71 3.4 S 20 33 11 18 1021.7 1021.4 0.0
09/09:30am 22.2 20.6 16.5 70 3.5 S 20 32 11 17 1021.6 1021.3 0.0
09/09:00am 21.9 19.3 16.0 69 3.6 S 24 33 13 18 1021.4 1021.1 0.0
09/08:30am 21.7 19.9 16.0 70 3.4 SSE 20 33 11 18 1021.2 1020.9 0.0
09/08:00am 21.5 20.1 17.1 76 2.7 SSE 20 32 11 17 1020.7 1020.4 0.0
09/07:30am 21.3 19.9 17.1 77 2.6 SSE 20 28 11 15 1020.5 1020.2 0.0
09/07:00am 21.2 19.9 17.2 78 2.5 SSE 20 32 11 17 1020.2 1019.9 0.0
09/06:30am 21.1 20.0 17.7 81 2.1 SSE 20 32 11 17 1019.8 1019.5 0.0
09/06:00am 21.0 19.8 17.6 81 2.1 SSE 20 33 11 18 1019.4 1019.1 0.0
09/05:30am 21.3 21.0 18.3 83 1.9 SSE 17 28 9 15 1019.3 1019.0 0.0
09/05:00am 21.3 20.5 18.1 82 2.0 S 19 30 10 16 1019.2 1018.9 0.0
09/04:30am 21.4 21.1 18.2 82 2.0 SSE 17 24 9 13 1019.2 1018.9 0.0
09/04:00am 21.5 21.3 18.5 83 1.9 SSE 17 26 9 14 1019.1 1018.8 0.0
09/03:30am 21.6 21.2 18.8 84 1.8 SSE 19 26 10 14 1019.1 1018.8 0.0
09/03:00am 21.8 21.2 18.8 83 1.9 SSE 20 30 11 16 1019.2 1018.9 0.0
09/02:30am 21.9 23.1 19.8 88 1.3 SSE 13 20 7 11 1019.3 1019.0 0.0
09/02:00am 22.0 24.5 19.9 88 1.3 WNW 6 7 3 4 1019.9 1019.6 0.0
09/01:30am 22.1 24.0 18.9 82 2.0 S 7 9 4 5 1019.9 1019.6 0.0
09/01:00am 22.0 23.7 18.6 81 2.1 SSE 7 9 4 5 1020.2 1019.9 0.0
09/12:30am 22.2 24.2 18.8 81 2.2 SSE 6 11 3 6 1020.1 1019.8 0.0
09/12:00am 22.4 23.5 18.8 80 2.3 SSE 11 20 6 11 1020.2 1019.9 0.0
 
Date/Time
EDT
Temp
°C
App
Temp
°C
Dew
Point
Rel
Hum
%
Delta-T
°C
Wind Press
QNH
hPa
Press
MSL
hPa
Rain
since 9 am
mm
Dir
 
Spd
km/h
Gust
km/h
Spd
kts
Gust
kts
08/11:30pm 22.4 23.9 18.8 80 2.3 S 9 13 5 7 1020.2 1019.9 0.0
08/11:00pm 22.3 23.8 18.9 81 2.1 S 9 17 5 9 1020.4 1020.1 0.0
08/10:30pm 22.3 23.6 18.5 79 2.4 SSE 9 13 5 7 1020.4 1020.1 0.0
08/10:00pm 22.4 24.0 19.2 82 2.0 SSE 9 15 5 8 1020.4 1020.1 0.0
08/09:30pm 22.4 23.4 18.6 79 2.4 SSE 11 15 6 8 1020.3 1020.0 0.0
08/09:00pm 22.5 23.5 18.7 79 2.4 SSE 11 17 6 9 1019.9 1019.6 0.0
08/08:30pm 22.4 23.8 18.6 79 2.4 SSE 9 11 5 6 1019.5 1019.2 0.0
08/08:00pm 22.4 23.7 18.4 78 2.5 SE 9 13 5 7 1019.2 1018.9 0.0
08/07:30pm 22.8 23.9 18.1 75 2.9 SE 9 15 5 8 1018.9 1018.6 0.0
08/07:00pm 23.2 24.4 18.3 74 3.1 ESE 9 15 5 8 1018.5 1018.2 0.0
08/06:30pm 23.6 24.5 18.5 73 3.2 ESE 11 15 6 8 1018.2 1017.9 0.0
08/06:00pm 23.9 25.2 18.5 72 3.4 ESE 9 15 5 8 1018.2 1017.9 0.0
08/05:30pm 24.6 26.3 19.4 73 3.3 ESE 9 15 5 8 1018.3 1018.0 0.0
08/05:00pm 24.7 26.1 19.5 73 3.3 E 11 20 6 11 1018.3 1018.0 0.0
08/04:30pm 24.5 25.7 19.1 72 3.5 ESE 11 22 6 12 1018.4 1018.1 0.0
08/04:00pm 24.4 25.0 18.6 70 3.7 ESE 13 22 7 12 1018.5 1018.2 0.0
08/03:30pm 24.5 25.6 18.9 71 3.6 ESE 11 20 6 11 1018.6 1018.3 0.0
08/03:00pm 24.5 25.3 18.2 68 4.0 ESE 11 20 6 11 1018.8 1018.5 0.0
08/02:30pm 24.6 25.4 18.1 67 4.1 ESE 11 20 6 11 1018.9 1018.6 0.0
08/02:00pm 25.0 25.5 18.4 66 4.2 E 13 17 7 9 1019.0 1018.7 0.0
08/01:30pm 24.8 25.3 17.5 64 4.6 ESE 11 20 6 11 1019.2 1018.9 0.0
08/01:00pm 24.6 25.2 17.6 65 4.4 SE 11 20 6 11 1019.4 1019.1 0.0
08/12:30pm 24.2 24.3 16.5 62 4.7 ESE 11 17 6 9 1019.5 1019.2 0.0
08/12:00pm 24.6 24.8 15.8 58 5.3 SE 9 17 5 9 1019.7 1019.4 0.0
08/11:30am 24.1 24.2 15.6 59 5.1 SE 9 13 5 7 1019.8 1019.5 0.0
08/11:00am 23.8 23.8 15.3 59 5.1 SE 9 15 5 8 1019.9 1019.6 0.0
08/10:30am 23.0 23.7 15.6 63 4.5 NW 6 9 3 5 1019.8 1019.5 0.0
08/10:00am 22.6 23.4 16.4 68 3.8 WNW 7 13 4 7 1019.7 1019.4 0.0
08/09:30am 21.4 22.5 17.0 76 2.7 WNW 7 11 4 6 1019.5 1019.2 0.0
08/09:00am 21.1 22.0 17.5 80 2.2 NW 9 13 5 7 1019.4 1019.1 0.0
08/08:30am 20.4 21.3 17.6 84 1.7 NW 9 13 5 7 1019.4 1019.1 0.0
08/08:00am 19.4 20.4 17.7 90 1.0 NW 9 13 5 7 1019.2 1018.9 0.0
08/07:30am 18.4 19.8 17.8 96 0.4 NW 7 11 4 6 1019.0 1018.7 0.0
08/07:00am 18.1 19.2 17.9 99 0.1 NW 9 9 5 5 1018.8 1018.5 0.0
08/06:30am 17.9 19.3 17.7 99 0.1 NW 7 9 4 5 1018.6 1018.3 0.0
08/06:00am 18.2 19.3 18.0 99 0.1 NW 9 11 5 6 1018.4 1018.1 0.0
08/05:30am 18.3 19.4 18.1 99 0.1 WNW 9 11 5 6 1018.3 1018.0 0.0
08/05:00am 19.2 21.1 19.0 99 0.1 WNW 7 9 4 5 1018.3 1018.0 0.0
08/04:30am 19.5 21.3 18.8 96 0.4 WNW 7 9 4 5 1018.2 1017.9 0.0
08/04:00am 19.7 22.8 18.7 94 0.6 CALM 0 0 0 0 1018.1 1017.8 0.0
08/03:30am 20.1 23.2 18.6 91 0.9 CALM 0 0 0 0 1018.3 1018.0 0.0
08/03:00am 20.0 21.7 18.1 89 1.2 SW 6 7 3 4 1018.4 1018.1 0.0
08/02:30am 20.2 21.8 18.3 89 1.2 WSW 7 9 4 5 1018.7 1018.4 0.0
08/02:00am 20.5 22.6 19.0 91 0.9 SW 6 7 3 4 1018.8 1018.5 0.0
08/01:30am 20.5 22.4 18.6 89 1.2 SW 6 7 3 4 1019.2 1018.9 0.0
08/01:00am 20.8 22.8 19.1 90 1.1 W 7 9 4 5 1019.3 1019.0 0.0
08/12:30am 20.1 22.5 17.1 83 1.8 CALM 0 6 0 3 1019.2 1018.9 0.0
08/12:00am 20.2 21.5 17.0 82 1.9 NE 6 6 3 3 1019.2 1018.9 0.0
 
Date/Time
EDT
Temp
°C
App
Temp
°C
Dew
Point
Rel
Hum
%
Delta-T
°C
Wind Press
QNH
hPa
Press
MSL
hPa
Rain
since 9 am
mm
Dir
 
Spd
km/h
Gust
km/h
Spd
kts
Gust
kts
07/11:30pm 20.7 21.9 16.9 79 2.3 NE 6 7 3 4 1019.1 1018.8 0.0
07/11:00pm 20.8 21.9 17.0 79 2.3 NE 7 9 4 5 1018.9 1018.6 0.0
07/10:30pm 20.4 21.4 16.4 78 2.4 NE 6 7 3 4 1019.0 1018.7 0.0
07/10:00pm 20.7 21.2 16.5 77 2.5 NE 9 9 5 5 1018.9 1018.6 0.0
07/09:30pm 21.0 21.9 16.6 76 2.7 NE 7 9 4 5 1018.6 1018.3 0.0
07/09:00pm 21.2 22.0 17.2 78 2.5 NE 9 11 5 6 1018.2 1017.9 0.0
07/08:30pm 21.4 22.6 17.4 78 2.5 ENE 7 9 4 5 1018.1 1017.8 0.0
07/08:00pm 21.7 23.1 17.7 78 2.5 ENE 7 9 4 5 1017.9 1017.6 0.0

Other Formats:

Comma delimited format used in spreadsheet applications
http://www.bom.gov.au/fwo/IDN60801/IDN60801.95940.axf

JavaScript Object Notation format (JSON) in row-major order
http://www.bom.gov.au/fwo/IDN60801/IDN60801.95940.json